DLH402 EDDF-KEWR
Flight info
| Callsign | DLH402 |
|---|---|
| Flight time | N/A |
| Altitude | 38000 |
| Route | OBOKA3D/07C OBOKA Z29 TORNU DCT RAVLO Y70 OTBED L60 PENIL M144 BAGSO DCT RESNO/M081F390 NATC RIKAL/N0474F400 N572A TOPPS DCT ENE DCT NELIE FLOSI4 |
| Aircraft | A346/H-SDE2E3FGHIJ3J4J5M1P2RWXYZ/LB1D1 |
Departure
| Time | N/A |
|---|---|
| Airport | Frankfurt Main Airport (EDDF) |
Arrival
| Time | 2026-04-20 21:38 |
|---|---|
| Airport | Newark Liberty International Airport (KEWR) |
| Time | Latitude | Longitude | Altitude | Speed | Heading |
|---|---|---|---|---|---|
| 2026-04-20 18:14 | 54.21651 | -42.79561 | 38024 ft | 483 kts | 256° |
| 2026-04-20 18:15 | 54.19999 | -42.90756 | 38024 ft | 483 kts | 256° |
| 2026-04-20 18:15 | 54.18323 | -43.02025 | 38024 ft | 483 kts | 256° |
| 2026-04-20 18:16 | 54.16643 | -43.13235 | 38024 ft | 483 kts | 256° |
| 2026-04-20 18:16 | 54.14958 | -43.24402 | 38025 ft | 483 kts | 256° |
| 2026-04-20 18:17 | 54.13258 | -43.35585 | 38025 ft | 483 kts | 256° |
| 2026-04-20 18:17 | 54.11550 | -43.46746 | 38025 ft | 483 kts | 256° |
| 2026-04-20 18:18 | 54.09830 | -43.57917 | 38025 ft | 483 kts | 256° |
| 2026-04-20 18:18 | 54.08964 | -43.63505 | 38025 ft | 483 kts | 256° |
| 2026-04-20 18:19 | 54.06531 | -43.79148 | 38024 ft | 483 kts | 255° |
| 2026-04-20 18:20 | 54.04773 | -43.90352 | 38024 ft | 483 kts | 255° |
| 2026-04-20 18:20 | 54.02994 | -44.01606 | 38024 ft | 483 kts | 255° |
| 2026-04-20 18:21 | 54.01213 | -44.12791 | 38025 ft | 483 kts | 255° |
| 2026-04-20 18:21 | 53.99420 | -44.23975 | 38025 ft | 483 kts | 255° |
| 2026-04-20 18:22 | 53.97621 | -44.35120 | 38025 ft | 483 kts | 255° |
| 2026-04-20 18:22 | 53.95805 | -44.46298 | 38025 ft | 483 kts | 255° |
| 2026-04-20 18:23 | 53.93990 | -44.57395 | 38025 ft | 483 kts | 255° |
| 2026-04-20 18:23 | 53.92162 | -44.68516 | 38025 ft | 483 kts | 254° |
| 2026-04-20 18:24 | 53.90324 | -44.79653 | 38024 ft | 483 kts | 254° |
| 2026-04-20 18:24 | 53.88470 | -44.90677 | 38024 ft | 483 kts | 254° |
| 2026-04-20 18:25 | 53.86592 | -45.01727 | 38024 ft | 483 kts | 254° |
| 2026-04-20 18:25 | 53.84701 | -45.12862 | 38024 ft | 483 kts | 254° |
| 2026-04-20 18:26 | 53.82808 | -45.23979 | 38024 ft | 483 kts | 254° |
| 2026-04-20 18:26 | 53.80917 | -45.35030 | 38024 ft | 483 kts | 254° |
| 2026-04-20 18:27 | 53.79006 | -45.46129 | 38024 ft | 483 kts | 254° |
| 2026-04-20 18:27 | 53.77090 | -45.57187 | 38024 ft | 483 kts | 254° |
| 2026-04-20 18:28 | 53.75179 | -45.68156 | 38024 ft | 483 kts | 253° |
| 2026-04-20 18:28 | 53.73262 | -45.79122 | 38025 ft | 483 kts | 253° |
| 2026-04-20 18:29 | 53.69499 | -46.00423 | 38024 ft | 483 kts | 253° |
| 2026-04-20 18:30 | 53.67550 | -46.11342 | 38024 ft | 483 kts | 253° |
| 2026-04-20 18:30 | 53.65579 | -46.22322 | 38024 ft | 483 kts | 253° |
| 2026-04-20 18:31 | 53.63609 | -46.33219 | 38024 ft | 483 kts | 253° |
| 2026-04-20 18:31 | 53.61617 | -46.44179 | 38024 ft | 483 kts | 253° |
| 2026-04-20 18:32 | 53.59629 | -46.55054 | 38024 ft | 483 kts | 253° |
| 2026-04-20 18:32 | 53.57621 | -46.65973 | 38024 ft | 483 kts | 252° |
| 2026-04-20 18:33 | 53.55595 | -46.76953 | 38024 ft | 483 kts | 252° |
| 2026-04-20 18:33 | 53.53571 | -46.87855 | 38024 ft | 483 kts | 252° |
| 2026-04-20 18:34 | 53.51528 | -46.98776 | 38024 ft | 483 kts | 252° |
| 2026-04-20 18:34 | 53.49475 | -47.09684 | 38024 ft | 483 kts | 252° |
| 2026-04-20 18:35 | 53.47398 | -47.20651 | 38024 ft | 483 kts | 252° |
| 2026-04-20 18:35 | 53.45381 | -47.31246 | 38024 ft | 483 kts | 252° |
| 2026-04-20 18:36 | 53.43306 | -47.42078 | 38024 ft | 483 kts | 252° |
| 2026-04-20 18:36 | 53.41224 | -47.52889 | 38024 ft | 483 kts | 252° |
| 2026-04-20 18:37 | 53.39131 | -47.63689 | 38025 ft | 483 kts | 252° |
| 2026-04-20 18:37 | 53.37020 | -47.74553 | 38024 ft | 483 kts | 252° |
| 2026-04-20 18:38 | 53.34924 | -47.85278 | 38024 ft | 483 kts | 251° |
| 2026-04-20 18:38 | 53.33141 | -47.94343 | 38024 ft | 483 kts | 251° |
| 2026-04-20 18:39 | 53.30648 | -48.06932 | 38024 ft | 483 kts | 251° |
| 2026-04-20 18:39 | 53.28500 | -48.17720 | 38024 ft | 483 kts | 251° |
| 2026-04-20 18:40 | 53.26321 | -48.28595 | 38025 ft | 483 kts | 251° |
| 2026-04-20 18:40 | 53.24158 | -48.39335 | 38025 ft | 483 kts | 251° |
| 2026-04-20 18:41 | 53.21969 | -48.50143 | 38025 ft | 483 kts | 251° |
| 2026-04-20 18:41 | 53.19792 | -48.60832 | 38025 ft | 483 kts | 251° |
| 2026-04-20 18:42 | 53.17592 | -48.71592 | 38024 ft | 483 kts | 251° |
| 2026-04-20 18:42 | 53.15369 | -48.82422 | 38024 ft | 483 kts | 251° |
| 2026-04-20 18:43 | 53.13150 | -48.93157 | 38024 ft | 483 kts | 251° |
| 2026-04-20 18:43 | 53.10901 | -49.03968 | 38024 ft | 483 kts | 251° |
| 2026-04-20 18:44 | 53.08649 | -49.14734 | 38024 ft | 483 kts | 251° |
| 2026-04-20 18:44 | 53.06396 | -49.25443 | 38025 ft | 483 kts | 251° |
| 2026-04-20 18:45 | 53.04117 | -49.36222 | 38025 ft | 483 kts | 251° |
| 2026-04-20 18:45 | 53.01854 | -49.46869 | 38025 ft | 483 kts | 251° |
| 2026-04-20 18:46 | 52.99589 | -49.57465 | 38025 ft | 483 kts | 251° |
| 2026-04-20 18:46 | 52.97310 | -49.68078 | 38025 ft | 483 kts | 250° |
| 2026-04-20 18:47 | 52.95034 | -49.78653 | 38024 ft | 483 kts | 250° |
| 2026-04-20 18:47 | 52.92740 | -49.89240 | 38024 ft | 483 kts | 250° |
| 2026-04-20 18:48 | 52.90439 | -49.99793 | 38024 ft | 483 kts | 250° |
| 2026-04-20 18:48 | 52.88093 | -50.10400 | 38024 ft | 483 kts | 250° |
| 2026-04-20 18:49 | 52.85748 | -50.20925 | 38024 ft | 483 kts | 250° |
| 2026-04-20 18:49 | 52.83404 | -50.31457 | 38024 ft | 483 kts | 250° |
| 2026-04-20 18:50 | 52.81076 | -50.41896 | 38024 ft | 483 kts | 250° |
| 2026-04-20 18:50 | 52.78720 | -50.52420 | 38024 ft | 483 kts | 250° |
| 2026-04-20 18:51 | 52.76338 | -50.63006 | 38024 ft | 483 kts | 250° |
| 2026-04-20 18:51 | 52.73944 | -50.73621 | 38024 ft | 483 kts | 249° |
| 2026-04-20 18:52 | 52.71575 | -50.84077 | 38024 ft | 483 kts | 249° |
| 2026-04-20 18:52 | 52.69157 | -50.94680 | 38024 ft | 483 kts | 249° |
| 2026-04-20 18:53 | 52.66734 | -51.05244 | 38024 ft | 483 kts | 249° |
| 2026-04-20 18:53 | 52.64307 | -51.15767 | 38024 ft | 483 kts | 249° |
| 2026-04-20 18:54 | 52.61896 | -51.26172 | 38024 ft | 483 kts | 249° |
| 2026-04-20 18:54 | 52.59465 | -51.36612 | 38024 ft | 483 kts | 249° |
| 2026-04-20 18:55 | 52.57010 | -51.47100 | 38024 ft | 483 kts | 249° |
| 2026-04-20 18:55 | 52.54549 | -51.57569 | 38024 ft | 483 kts | 249° |
| 2026-04-20 18:56 | 52.52094 | -51.67960 | 38024 ft | 483 kts | 249° |
| 2026-04-20 18:56 | 52.49638 | -51.78334 | 38024 ft | 483 kts | 249° |
| 2026-04-20 18:57 | 52.47172 | -51.88689 | 38024 ft | 483 kts | 248° |
| 2026-04-20 18:57 | 52.44688 | -51.99062 | 38024 ft | 483 kts | 248° |
| 2026-04-20 18:58 | 52.42205 | -52.09372 | 38024 ft | 483 kts | 248° |
| 2026-04-20 18:58 | 52.39700 | -52.19723 | 38024 ft | 483 kts | 248° |
| 2026-04-20 18:59 | 52.37198 | -52.30012 | 38024 ft | 483 kts | 248° |
| 2026-04-20 18:59 | 52.34679 | -52.40326 | 38024 ft | 483 kts | 248° |
| 2026-04-20 19:00 | 52.32159 | -52.50591 | 38025 ft | 483 kts | 248° |
| 2026-04-20 19:00 | 52.29602 | -52.60959 | 38025 ft | 483 kts | 248° |
| 2026-04-20 19:01 | 52.27055 | -52.71254 | 38024 ft | 483 kts | 248° |
| 2026-04-20 19:01 | 52.24514 | -52.81491 | 38024 ft | 483 kts | 248° |
| 2026-04-20 19:02 | 52.21975 | -52.91658 | 38024 ft | 483 kts | 248° |
| 2026-04-20 19:02 | 52.19370 | -53.02031 | 38024 ft | 483 kts | 248° |
| 2026-04-20 19:03 | 52.16792 | -53.12247 | 38024 ft | 483 kts | 248° |
| 2026-04-20 19:03 | 52.14203 | -53.22460 | 38025 ft | 483 kts | 248° |
| 2026-04-20 19:04 | 52.11612 | -53.32634 | 38025 ft | 483 kts | 248° |
| 2026-04-20 19:04 | 52.09002 | -53.42836 | 38026 ft | 483 kts | 248° |
| 2026-04-20 19:05 | 52.07695 | -53.47927 | 38134 ft | 485 kts | 248° |
| 2026-04-20 19:05 | 52.06363 | -53.53108 | 38365 ft | 484 kts | 248° |
| 2026-04-20 19:05 | 52.05040 | -53.58236 | 38593 ft | 483 kts | 248° |
| 2026-04-20 19:05 | 52.03733 | -53.63295 | 38783 ft | 482 kts | 248° |
| 2026-04-20 19:06 | 52.02408 | -53.68418 | 38949 ft | 482 kts | 247° |
| 2026-04-20 19:06 | 52.01093 | -53.73495 | 39102 ft | 482 kts | 247° |
| 2026-04-20 19:06 | 51.99765 | -53.78612 | 39251 ft | 483 kts | 247° |
| 2026-04-20 19:06 | 51.98442 | -53.83696 | 39394 ft | 483 kts | 247° |
| 2026-04-20 19:07 | 51.97107 | -53.88807 | 39532 ft | 483 kts | 247° |
| 2026-04-20 19:07 | 51.95761 | -53.93947 | 39666 ft | 483 kts | 247° |
| 2026-04-20 19:07 | 51.94440 | -53.98982 | 39792 ft | 483 kts | 247° |
| 2026-04-20 19:07 | 51.93089 | -54.04118 | 39914 ft | 483 kts | 247° |
| 2026-04-20 19:08 | 51.91751 | -54.09190 | 40016 ft | 483 kts | 247° |
| 2026-04-20 19:08 | 51.89034 | -54.19443 | 40026 ft | 483 kts | 246° |
| 2026-04-20 19:09 | 51.86319 | -54.29557 | 40027 ft | 483 kts | 247° |
| 2026-04-20 19:09 | 51.83595 | -54.39752 | 40027 ft | 483 kts | 247° |
| 2026-04-20 19:10 | 51.80834 | -54.49904 | 40025 ft | 483 kts | 245° |
| 2026-04-20 19:10 | 51.77552 | -54.59633 | 40026 ft | 483 kts | 239° |
| 2026-04-20 19:11 | 51.73995 | -54.68977 | 40027 ft | 483 kts | 238° |
| 2026-04-20 19:11 | 51.70434 | -54.78342 | 40027 ft | 483 kts | 238° |
| 2026-04-20 19:12 | 51.66852 | -54.87735 | 40027 ft | 483 kts | 238° |
| 2026-04-20 19:12 | 51.63256 | -54.97129 | 40027 ft | 483 kts | 238° |
| 2026-04-20 19:13 | 51.59668 | -55.06466 | 40027 ft | 483 kts | 238° |
| 2026-04-20 19:13 | 51.56065 | -55.15809 | 40027 ft | 483 kts | 238° |
| 2026-04-20 19:14 | 51.52432 | -55.25195 | 40027 ft | 483 kts | 238° |
| 2026-04-20 19:14 | 51.48809 | -55.34519 | 40027 ft | 483 kts | 238° |
| 2026-04-20 19:15 | 51.45200 | -55.43774 | 40027 ft | 483 kts | 238° |
| 2026-04-20 19:15 | 51.41550 | -55.53102 | 40027 ft | 483 kts | 238° |
| 2026-04-20 19:16 | 51.37891 | -55.62419 | 40027 ft | 483 kts | 238° |
| 2026-04-20 19:16 | 51.34237 | -55.71709 | 40027 ft | 483 kts | 237° |
| 2026-04-20 19:17 | 51.30587 | -55.80962 | 40027 ft | 483 kts | 237° |
| 2026-04-20 19:17 | 51.26927 | -55.90196 | 40027 ft | 483 kts | 237° |
| 2026-04-20 19:18 | 51.23257 | -55.99411 | 40027 ft | 483 kts | 237° |
| 2026-04-20 19:18 | 51.19565 | -56.08646 | 40027 ft | 483 kts | 237° |
| 2026-04-20 19:19 | 51.15871 | -56.17852 | 40027 ft | 483 kts | 237° |
| 2026-04-20 19:19 | 51.12177 | -56.27025 | 40027 ft | 483 kts | 237° |
| 2026-04-20 19:20 | 51.08468 | -56.36203 | 40027 ft | 483 kts | 237° |
| 2026-04-20 19:20 | 51.04768 | -56.45326 | 40027 ft | 483 kts | 237° |
| 2026-04-20 19:21 | 51.01038 | -56.54490 | 40027 ft | 483 kts | 237° |
| 2026-04-20 19:21 | 50.97339 | -56.63547 | 40027 ft | 483 kts | 237° |
| 2026-04-20 19:22 | 50.93597 | -56.72700 | 40027 ft | 483 kts | 237° |
| 2026-04-20 19:22 | 50.89857 | -56.81818 | 40027 ft | 483 kts | 237° |
| 2026-04-20 19:23 | 50.86089 | -56.90892 | 40027 ft | 483 kts | 236° |
| 2026-04-20 19:23 | 50.82330 | -56.99918 | 40027 ft | 483 kts | 237° |
| 2026-04-20 19:24 | 50.78560 | -57.08969 | 40027 ft | 483 kts | 237° |
| 2026-04-20 19:24 | 50.74788 | -57.18004 | 40027 ft | 483 kts | 237° |
| 2026-04-20 19:25 | 50.71026 | -57.26991 | 40027 ft | 483 kts | 237° |
| 2026-04-20 19:25 | 50.67252 | -57.35975 | 40027 ft | 483 kts | 237° |
| 2026-04-20 19:26 | 50.63460 | -57.44972 | 40027 ft | 483 kts | 237° |
| 2026-04-20 19:26 | 50.59638 | -57.54012 | 40027 ft | 483 kts | 237° |
| 2026-04-20 19:27 | 50.55858 | -57.62919 | 40027 ft | 483 kts | 237° |
| 2026-04-20 19:27 | 50.52063 | -57.71853 | 40027 ft | 483 kts | 236° |
| 2026-04-20 19:28 | 50.48277 | -57.80742 | 40027 ft | 483 kts | 236° |
| 2026-04-20 19:28 | 50.44468 | -57.89642 | 40027 ft | 483 kts | 236° |
| 2026-04-20 19:29 | 50.40643 | -57.98537 | 40027 ft | 483 kts | 236° |
| 2026-04-20 19:29 | 50.36807 | -58.07428 | 40027 ft | 483 kts | 236° |
| 2026-04-20 19:30 | 50.32950 | -58.16334 | 40027 ft | 483 kts | 236° |
| 2026-04-20 19:30 | 50.29116 | -58.25158 | 40027 ft | 483 kts | 236° |
| 2026-04-20 19:31 | 50.25242 | -58.34044 | 40027 ft | 483 kts | 236° |
| 2026-04-20 19:31 | 50.21386 | -58.42858 | 40027 ft | 483 kts | 236° |
| 2026-04-20 19:32 | 50.17520 | -58.51667 | 40027 ft | 483 kts | 236° |
| 2026-04-20 19:32 | 50.13655 | -58.60444 | 40027 ft | 483 kts | 236° |
| 2026-04-20 19:33 | 50.09763 | -58.69262 | 40027 ft | 483 kts | 235° |
| 2026-04-20 19:33 | 50.05894 | -58.78021 | 40027 ft | 483 kts | 235° |
| 2026-04-20 19:34 | 50.01989 | -58.86816 | 40027 ft | 483 kts | 235° |
| 2026-04-20 19:34 | 49.98077 | -58.95586 | 40027 ft | 483 kts | 235° |
| 2026-04-20 19:35 | 49.94165 | -59.04327 | 40027 ft | 483 kts | 235° |
| 2026-04-20 19:35 | 49.90271 | -59.12996 | 40027 ft | 483 kts | 235° |
| 2026-04-20 19:36 | 49.86302 | -59.21748 | 40027 ft | 483 kts | 235° |
| 2026-04-20 19:36 | 49.82357 | -59.30420 | 40027 ft | 483 kts | 235° |
| 2026-04-20 19:37 | 49.78406 | -59.39106 | 40027 ft | 483 kts | 235° |
| 2026-04-20 19:37 | 49.74464 | -59.47760 | 40027 ft | 483 kts | 235° |
| 2026-04-20 19:38 | 49.70522 | -59.56389 | 40027 ft | 483 kts | 235° |
| 2026-04-20 19:38 | 49.66576 | -59.65001 | 40027 ft | 483 kts | 235° |
| 2026-04-20 19:39 | 49.62611 | -59.73658 | 40027 ft | 483 kts | 234° |
| 2026-04-20 19:39 | 49.58662 | -59.82245 | 40027 ft | 483 kts | 234° |
| 2026-04-20 19:40 | 49.54684 | -59.90854 | 40027 ft | 483 kts | 234° |
| 2026-04-20 19:40 | 49.50692 | -59.99458 | 40027 ft | 483 kts | 234° |
| 2026-04-20 19:41 | 49.46712 | -60.08008 | 40027 ft | 483 kts | 234° |
| 2026-04-20 19:41 | 49.42728 | -60.16539 | 40027 ft | 483 kts | 234° |
| 2026-04-20 19:42 | 49.38709 | -60.25114 | 40027 ft | 483 kts | 234° |
| 2026-04-20 19:42 | 49.34701 | -60.33642 | 40027 ft | 483 kts | 234° |
| 2026-04-20 19:43 | 49.31370 | -60.40707 | 40027 ft | 483 kts | 234° |
| 2026-04-20 19:43 | 49.26668 | -60.50648 | 40027 ft | 483 kts | 234° |
| 2026-04-20 19:44 | 49.22648 | -60.59119 | 40027 ft | 483 kts | 234° |
| 2026-04-20 19:44 | 49.18621 | -60.67581 | 40027 ft | 483 kts | 233° |
| 2026-04-20 19:45 | 49.14585 | -60.76062 | 40027 ft | 483 kts | 233° |
| 2026-04-20 19:45 | 49.10565 | -60.84472 | 40027 ft | 483 kts | 233° |
| 2026-04-20 19:46 | 49.06522 | -60.92890 | 40027 ft | 483 kts | 233° |
| 2026-04-20 19:46 | 49.02444 | -61.01350 | 40027 ft | 483 kts | 233° |
| 2026-04-20 19:47 | 48.99082 | -61.08303 | 40027 ft | 483 kts | 233° |
| 2026-04-20 19:47 | 48.95696 | -61.15288 | 40027 ft | 483 kts | 233° |
| 2026-04-20 19:48 | 48.90946 | -61.25057 | 40027 ft | 483 kts | 233° |
| 2026-04-20 19:48 | 48.86140 | -61.34851 | 40027 ft | 483 kts | 233° |
| 2026-04-20 19:49 | 48.82044 | -61.43167 | 40027 ft | 483 kts | 233° |
| 2026-04-20 19:49 | 48.77962 | -61.51457 | 40026 ft | 483 kts | 233° |
| 2026-04-20 19:50 | 48.73849 | -61.59797 | 40026 ft | 483 kts | 233° |
| 2026-04-20 19:50 | 48.69749 | -61.68096 | 40027 ft | 483 kts | 233° |
| 2026-04-20 19:51 | 48.65660 | -61.76373 | 40027 ft | 483 kts | 233° |
| 2026-04-20 19:51 | 48.61529 | -61.84670 | 40027 ft | 483 kts | 232° |
| 2026-04-20 19:52 | 48.57386 | -61.92842 | 40027 ft | 483 kts | 232° |
| 2026-04-20 19:52 | 48.53223 | -62.01034 | 40027 ft | 483 kts | 232° |
| 2026-04-20 19:53 | 48.49089 | -62.09176 | 40027 ft | 483 kts | 232° |
| 2026-04-20 19:53 | 48.44981 | -62.17260 | 40027 ft | 483 kts | 232° |
| 2026-04-20 19:54 | 48.40854 | -62.25366 | 40027 ft | 483 kts | 232° |
| 2026-04-20 19:54 | 48.36712 | -62.33476 | 40027 ft | 483 kts | 232° |
| 2026-04-20 19:55 | 48.32587 | -62.41534 | 40027 ft | 483 kts | 232° |
| 2026-04-20 19:55 | 48.28442 | -62.49604 | 40027 ft | 483 kts | 232° |
| 2026-04-20 19:56 | 48.24298 | -62.57647 | 40027 ft | 483 kts | 232° |
| 2026-04-20 19:56 | 48.20152 | -62.65673 | 40027 ft | 483 kts | 232° |
| 2026-04-20 19:57 | 48.16007 | -62.73701 | 40027 ft | 483 kts | 232° |
| 2026-04-20 19:57 | 48.11838 | -62.81743 | 40027 ft | 483 kts | 232° |
| 2026-04-20 19:58 | 48.07698 | -62.89696 | 40027 ft | 483 kts | 232° |
| 2026-04-20 19:58 | 48.03492 | -62.97744 | 40027 ft | 483 kts | 232° |
| 2026-04-20 19:59 | 47.99270 | -63.05796 | 40027 ft | 483 kts | 232° |
| 2026-04-20 19:59 | 47.95084 | -63.13759 | 40027 ft | 483 kts | 232° |
| 2026-04-20 20:00 | 47.90881 | -63.21725 | 40027 ft | 483 kts | 232° |
| 2026-04-20 20:00 | 47.86660 | -63.29668 | 40027 ft | 483 kts | 232° |
| 2026-04-20 20:01 | 47.82432 | -63.37587 | 40027 ft | 483 kts | 232° |
| 2026-04-20 20:01 | 47.78164 | -63.45586 | 40027 ft | 483 kts | 232° |
| 2026-04-20 20:02 | 47.73913 | -63.53544 | 40027 ft | 483 kts | 232° |
| 2026-04-20 20:02 | 47.69649 | -63.61509 | 40027 ft | 483 kts | 232° |
| 2026-04-20 20:03 | 47.65390 | -63.69453 | 40027 ft | 483 kts | 231° |
| 2026-04-20 20:03 | 47.61120 | -63.77416 | 40027 ft | 483 kts | 231° |
| 2026-04-20 20:04 | 47.56850 | -63.85341 | 40027 ft | 483 kts | 231° |
| 2026-04-20 20:04 | 47.52583 | -63.93225 | 40027 ft | 483 kts | 231° |
| 2026-04-20 20:05 | 47.48268 | -64.01170 | 40027 ft | 483 kts | 231° |
| 2026-04-20 20:05 | 47.43971 | -64.09059 | 40027 ft | 483 kts | 231° |
| 2026-04-20 20:06 | 47.39695 | -64.16887 | 40027 ft | 483 kts | 231° |
| 2026-04-20 20:06 | 47.35372 | -64.24779 | 40027 ft | 483 kts | 231° |
| 2026-04-20 20:07 | 47.31060 | -64.32628 | 40027 ft | 483 kts | 231° |
| 2026-04-20 20:07 | 47.26763 | -64.40426 | 40027 ft | 483 kts | 231° |
| 2026-04-20 20:08 | 47.22434 | -64.48262 | 40027 ft | 483 kts | 231° |
| 2026-04-20 20:08 | 47.18121 | -64.56044 | 40027 ft | 483 kts | 231° |
| 2026-04-20 20:09 | 47.13790 | -64.63839 | 40027 ft | 483 kts | 231° |
| 2026-04-20 20:09 | 47.09441 | -64.71664 | 40027 ft | 483 kts | 230° |
| 2026-04-20 20:10 | 47.05105 | -64.79448 | 40027 ft | 483 kts | 230° |
| 2026-04-20 20:10 | 47.00759 | -64.87214 | 40027 ft | 483 kts | 230° |
| 2026-04-20 20:11 | 46.96398 | -64.94976 | 40027 ft | 483 kts | 230° |
| 2026-04-20 20:11 | 46.92042 | -65.02705 | 40027 ft | 483 kts | 230° |
| 2026-04-20 20:12 | 46.87662 | -65.10433 | 40027 ft | 483 kts | 230° |
| 2026-04-20 20:12 | 46.83293 | -65.18088 | 40027 ft | 483 kts | 230° |
| 2026-04-20 20:13 | 46.76712 | -65.29627 | 40027 ft | 483 kts | 230° |
| 2026-04-20 20:13 | 46.72351 | -65.37261 | 40027 ft | 483 kts | 230° |
| 2026-04-20 20:14 | 46.67951 | -65.44946 | 40027 ft | 483 kts | 230° |
| 2026-04-20 20:14 | 46.63565 | -65.52586 | 40027 ft | 483 kts | 230° |
| 2026-04-20 20:15 | 46.59164 | -65.60232 | 40027 ft | 483 kts | 230° |
| 2026-04-20 20:15 | 46.54762 | -65.67863 | 40027 ft | 483 kts | 230° |
| 2026-04-20 20:16 | 46.50367 | -65.75490 | 40027 ft | 483 kts | 230° |
| 2026-04-20 20:16 | 46.45964 | -65.83093 | 40027 ft | 483 kts | 230° |
| 2026-04-20 20:17 | 46.41545 | -65.90691 | 40027 ft | 483 kts | 230° |
| 2026-04-20 20:17 | 46.37124 | -65.98267 | 40027 ft | 483 kts | 230° |
| 2026-04-20 20:18 | 46.32723 | -66.05787 | 40027 ft | 483 kts | 230° |
| 2026-04-20 20:18 | 46.28285 | -66.13349 | 40027 ft | 483 kts | 230° |
| 2026-04-20 20:19 | 46.23828 | -66.20923 | 40027 ft | 483 kts | 230° |
| 2026-04-20 20:19 | 46.19379 | -66.28462 | 40027 ft | 483 kts | 230° |
| 2026-04-20 20:20 | 46.14935 | -66.35973 | 40027 ft | 483 kts | 230° |
| 2026-04-20 20:20 | 46.10502 | -66.43446 | 40027 ft | 483 kts | 230° |
| 2026-04-20 20:21 | 46.06035 | -66.50954 | 40027 ft | 483 kts | 230° |
| 2026-04-20 20:21 | 46.02334 | -66.57161 | 40027 ft | 483 kts | 230° |
| 2026-04-20 20:22 | 45.97858 | -66.64648 | 40027 ft | 483 kts | 230° |
| 2026-04-20 20:22 | 45.93409 | -66.72096 | 40027 ft | 483 kts | 229° |
| 2026-04-20 20:23 | 45.88176 | -66.80813 | 40027 ft | 483 kts | 229° |
| 2026-04-20 20:23 | 45.84420 | -66.87005 | 40027 ft | 483 kts | 229° |
| 2026-04-20 20:24 | 45.79179 | -66.95645 | 40027 ft | 483 kts | 229° |
| 2026-04-20 20:24 | 45.74675 | -67.03065 | 40027 ft | 483 kts | 229° |
| 2026-04-20 20:25 | 45.70197 | -67.10428 | 40027 ft | 483 kts | 229° |
| 2026-04-20 20:25 | 45.65677 | -67.17843 | 40027 ft | 483 kts | 229° |
| 2026-04-20 20:26 | 45.61198 | -67.25169 | 40027 ft | 483 kts | 229° |
| 2026-04-20 20:26 | 45.56679 | -67.32546 | 40027 ft | 483 kts | 229° |
| 2026-04-20 20:27 | 45.52164 | -67.39893 | 40027 ft | 483 kts | 229° |
| 2026-04-20 20:27 | 45.47650 | -67.47222 | 40027 ft | 483 kts | 229° |
| 2026-04-20 20:28 | 45.43116 | -67.54563 | 40027 ft | 483 kts | 229° |
| 2026-04-20 20:28 | 45.38593 | -67.61867 | 40027 ft | 483 kts | 229° |
| 2026-04-20 20:29 | 45.34058 | -67.69183 | 40027 ft | 483 kts | 228° |
| 2026-04-20 20:29 | 45.29526 | -67.76494 | 40027 ft | 483 kts | 228° |
| 2026-04-20 20:30 | 45.25002 | -67.83757 | 40027 ft | 483 kts | 228° |
| 2026-04-20 20:30 | 45.20459 | -67.91022 | 40027 ft | 483 kts | 228° |
| 2026-04-20 20:31 | 45.15899 | -67.98291 | 40027 ft | 483 kts | 228° |
| 2026-04-20 20:31 | 45.11332 | -68.05551 | 40027 ft | 483 kts | 228° |
| 2026-04-20 20:32 | 45.06768 | -68.12788 | 40027 ft | 483 kts | 228° |
| 2026-04-20 20:32 | 45.02220 | -68.19979 | 40027 ft | 483 kts | 228° |
| 2026-04-20 20:33 | 44.97650 | -68.27187 | 40027 ft | 483 kts | 228° |
| 2026-04-20 20:33 | 44.93073 | -68.34390 | 40027 ft | 483 kts | 228° |
| 2026-04-20 20:34 | 44.88505 | -68.41549 | 40027 ft | 483 kts | 228° |
| 2026-04-20 20:34 | 44.83883 | -68.48733 | 40026 ft | 483 kts | 228° |
| 2026-04-20 20:35 | 44.79293 | -68.55871 | 40026 ft | 483 kts | 228° |
| 2026-04-20 20:35 | 44.74705 | -68.63006 | 40026 ft | 483 kts | 228° |
| 2026-04-20 20:36 | 44.70118 | -68.70145 | 40027 ft | 483 kts | 227° |
| 2026-04-20 20:36 | 44.65531 | -68.77279 | 40027 ft | 483 kts | 227° |
| 2026-04-20 20:37 | 44.60942 | -68.84383 | 40027 ft | 483 kts | 227° |
| 2026-04-20 20:37 | 44.56320 | -68.91509 | 40027 ft | 483 kts | 227° |
| 2026-04-20 20:38 | 44.51714 | -68.98592 | 40027 ft | 483 kts | 227° |
| 2026-04-20 20:38 | 44.47102 | -69.05665 | 40027 ft | 483 kts | 227° |
| 2026-04-20 20:39 | 44.42469 | -69.12752 | 40027 ft | 483 kts | 227° |
| 2026-04-20 20:39 | 44.37843 | -69.19810 | 40027 ft | 483 kts | 227° |
| 2026-04-20 20:40 | 44.33202 | -69.26872 | 40027 ft | 483 kts | 227° |
| 2026-04-20 20:40 | 44.28560 | -69.33920 | 40027 ft | 483 kts | 227° |
| 2026-04-20 20:41 | 44.23915 | -69.40955 | 40027 ft | 483 kts | 227° |
| 2026-04-20 20:41 | 44.19295 | -69.47933 | 40027 ft | 483 kts | 227° |
| 2026-04-20 20:42 | 44.14640 | -69.54949 | 40027 ft | 483 kts | 227° |
| 2026-04-20 20:42 | 44.09999 | -69.61924 | 40027 ft | 483 kts | 227° |
| 2026-04-20 20:43 | 44.05340 | -69.68921 | 40027 ft | 483 kts | 227° |
| 2026-04-20 20:43 | 44.00703 | -69.75885 | 40027 ft | 483 kts | 227° |
| 2026-04-20 20:44 | 43.96009 | -69.82901 | 40027 ft | 483 kts | 227° |
| 2026-04-20 20:44 | 43.91353 | -69.89835 | 40027 ft | 483 kts | 227° |
| 2026-04-20 20:45 | 43.86675 | -69.96756 | 40027 ft | 483 kts | 226° |
| 2026-04-20 20:45 | 43.81988 | -70.03657 | 40027 ft | 483 kts | 227° |
| 2026-04-20 20:46 | 43.77300 | -70.10565 | 40027 ft | 483 kts | 227° |
| 2026-04-20 20:46 | 43.72591 | -70.17499 | 40027 ft | 483 kts | 227° |
| 2026-04-20 20:47 | 43.67922 | -70.24361 | 40027 ft | 483 kts | 227° |
| 2026-04-20 20:47 | 43.63238 | -70.31229 | 40027 ft | 483 kts | 227° |
| 2026-04-20 20:48 | 43.58537 | -70.38106 | 40027 ft | 483 kts | 227° |
| 2026-04-20 20:48 | 43.53812 | -70.45001 | 40027 ft | 483 kts | 227° |
| 2026-04-20 20:49 | 43.49117 | -70.51836 | 40027 ft | 483 kts | 227° |
| 2026-04-20 20:49 | 43.44407 | -70.58676 | 40027 ft | 483 kts | 227° |
| 2026-04-20 20:50 | 43.39708 | -70.65484 | 40027 ft | 483 kts | 226° |
| 2026-04-20 20:50 | 43.34992 | -70.72327 | 40027 ft | 483 kts | 226° |
| 2026-04-20 20:51 | 43.30246 | -70.79190 | 40027 ft | 483 kts | 226° |
| 2026-04-20 20:51 | 43.25540 | -70.85967 | 40027 ft | 483 kts | 226° |
| 2026-04-20 20:52 | 43.20804 | -70.92767 | 40027 ft | 483 kts | 226° |
| 2026-04-20 20:52 | 43.16057 | -70.99563 | 40027 ft | 483 kts | 226° |
| 2026-04-20 20:53 | 43.11315 | -71.06335 | 40027 ft | 483 kts | 226° |
| 2026-04-20 20:53 | 43.06581 | -71.13079 | 40027 ft | 483 kts | 226° |
| 2026-04-20 20:54 | 43.01827 | -71.19833 | 40027 ft | 483 kts | 226° |
| 2026-04-20 20:54 | 42.97066 | -71.26583 | 40027 ft | 483 kts | 226° |
| 2026-04-20 20:55 | 42.92339 | -71.33269 | 40027 ft | 483 kts | 226° |
| 2026-04-20 20:55 | 42.87569 | -71.39986 | 40027 ft | 483 kts | 226° |
| 2026-04-20 20:56 | 42.82803 | -71.46652 | 40027 ft | 483 kts | 226° |
| 2026-04-20 20:56 | 42.78012 | -71.53358 | 40027 ft | 483 kts | 226° |
| 2026-04-20 20:57 | 42.73254 | -71.60020 | 40027 ft | 483 kts | 226° |
| 2026-04-20 20:57 | 42.68470 | -71.66711 | 40027 ft | 483 kts | 225° |
| 2026-04-20 20:58 | 42.63682 | -71.73420 | 40027 ft | 483 kts | 225° |
| 2026-04-20 20:58 | 42.58925 | -71.80055 | 40027 ft | 483 kts | 225° |
| 2026-04-20 20:59 | 42.54149 | -71.86693 | 40027 ft | 483 kts | 225° |
| 2026-04-20 20:59 | 42.49330 | -71.93366 | 40027 ft | 483 kts | 225° |
| 2026-04-20 21:00 | 42.44565 | -71.99950 | 40027 ft | 483 kts | 225° |
| 2026-04-20 21:00 | 42.39763 | -72.06570 | 40027 ft | 483 kts | 225° |
| 2026-04-20 21:01 | 42.34968 | -72.13165 | 40021 ft | 475 kts | 225° |
| 2026-04-20 21:01 | 42.30329 | -72.19533 | 40027 ft | 466 kts | 225° |
| 2026-04-20 21:02 | 42.25682 | -72.25899 | 40027 ft | 466 kts | 225° |
| 2026-04-20 21:02 | 42.21049 | -72.32229 | 40027 ft | 466 kts | 225° |
| 2026-04-20 21:03 | 42.16407 | -72.38558 | 40027 ft | 466 kts | 225° |
| 2026-04-20 21:03 | 42.11763 | -72.44880 | 40027 ft | 466 kts | 225° |
| 2026-04-20 21:04 | 42.07117 | -72.51195 | 40027 ft | 466 kts | 225° |
| 2026-04-20 21:04 | 42.02476 | -72.57483 | 40027 ft | 466 kts | 225° |
| 2026-04-20 21:05 | 41.98041 | -72.64032 | 40027 ft | 466 kts | 232° |
| 2026-04-20 21:05 | 41.94340 | -72.71441 | 40025 ft | 466 kts | 240° |
| 2026-04-20 21:06 | 41.91541 | -72.79485 | 40025 ft | 466 kts | 249° |
| 2026-04-20 21:06 | 41.89473 | -72.87881 | 39902 ft | 463 kts | 252° |
| 2026-04-20 21:07 | 41.88466 | -72.92099 | 39203 ft | 463 kts | 252° |
| 2026-04-20 21:07 | 41.87471 | -72.96251 | 38344 ft | 467 kts | 252° |
| 2026-04-20 21:07 | 41.86445 | -73.00518 | 37438 ft | 468 kts | 252° |
| 2026-04-20 21:07 | 41.85428 | -73.04749 | 36543 ft | 467 kts | 252° |
| 2026-04-20 21:08 | 41.84425 | -73.08913 | 35657 ft | 466 kts | 252° |
| 2026-04-20 21:08 | 41.83401 | -73.13158 | 34749 ft | 462 kts | 252° |
| 2026-04-20 21:08 | 41.82399 | -73.17307 | 33854 ft | 457 kts | 252° |
| 2026-04-20 21:08 | 41.81409 | -73.21401 | 32963 ft | 453 kts | 252° |
| 2026-04-20 21:09 | 41.80425 | -73.25463 | 32071 ft | 450 kts | 252° |
| 2026-04-20 21:09 | 41.79441 | -73.29515 | 31182 ft | 452 kts | 252° |
| 2026-04-20 21:09 | 41.78443 | -73.33620 | 30286 ft | 455 kts | 252° |
| 2026-04-20 21:09 | 41.77452 | -73.37688 | 29400 ft | 458 kts | 252° |
| 2026-04-20 21:10 | 41.76451 | -73.41791 | 28513 ft | 460 kts | 252° |
| 2026-04-20 21:10 | 41.75452 | -73.45873 | 27632 ft | 461 kts | 252° |
| 2026-04-20 21:10 | 41.74441 | -73.50005 | 26741 ft | 462 kts | 252° |
| 2026-04-20 21:10 | 41.73426 | -73.54145 | 25849 ft | 462 kts | 252° |
| 2026-04-20 21:11 | 41.72422 | -73.58237 | 24968 ft | 462 kts | 252° |
| 2026-04-20 21:11 | 41.71406 | -73.62367 | 24078 ft | 462 kts | 252° |
| 2026-04-20 21:11 | 41.70394 | -73.66479 | 23175 ft | 454 kts | 251° |
| 2026-04-20 21:11 | 41.69411 | -73.70481 | 22290 ft | 445 kts | 251° |
| 2026-04-20 21:12 | 41.68446 | -73.74401 | 21408 ft | 438 kts | 251° |
| 2026-04-20 21:12 | 41.67490 | -73.78267 | 20522 ft | 431 kts | 251° |
| 2026-04-20 21:12 | 41.66554 | -73.82031 | 19645 ft | 424 kts | 251° |
| 2026-04-20 21:12 | 41.65647 | -73.85783 | 18760 ft | 418 kts | 252° |
| 2026-04-20 21:13 | 41.64771 | -73.89487 | 17875 ft | 412 kts | 252° |
| 2026-04-20 21:13 | 41.63912 | -73.93136 | 16992 ft | 407 kts | 252° |
| 2026-04-20 21:13 | 41.63060 | -73.96749 | 16105 ft | 401 kts | 252° |
| 2026-04-20 21:13 | 41.62216 | -74.00323 | 15217 ft | 396 kts | 252° |
| 2026-04-20 21:14 | 41.61372 | -74.03888 | 14319 ft | 391 kts | 252° |
| 2026-04-20 21:14 | 41.60541 | -74.07389 | 13425 ft | 387 kts | 252° |
| 2026-04-20 21:14 | 41.59717 | -74.10853 | 12531 ft | 382 kts | 252° |
| 2026-04-20 21:14 | 41.58906 | -74.14262 | 11639 ft | 378 kts | 252° |
| 2026-04-20 21:15 | 41.58103 | -74.17633 | 10748 ft | 374 kts | 252° |
| 2026-04-20 21:15 | 41.57305 | -74.20970 | 9855 ft | 370 kts | 252° |
| 2026-04-20 21:15 | 41.56505 | -74.24306 | 8953 ft | 366 kts | 252° |
| 2026-04-20 21:15 | 41.55712 | -74.27597 | 8052 ft | 362 kts | 251° |
| 2026-04-20 21:16 | 41.54601 | -74.30626 | 7296 ft | 353 kts | 235° |
| 2026-04-20 21:16 | 41.52949 | -74.33048 | 6885 ft | 336 kts | 219° |
| 2026-04-20 21:16 | 41.51037 | -74.34698 | 6783 ft | 312 kts | 205° |
| 2026-04-20 21:16 | 41.49058 | -74.35704 | 6778 ft | 288 kts | 198° |
| 2026-04-20 21:17 | 41.47295 | -74.36452 | 6779 ft | 275 kts | 197° |
| 2026-04-20 21:17 | 41.45513 | -74.37192 | 6779 ft | 276 kts | 198° |
| 2026-04-20 21:17 | 41.43666 | -74.37969 | 6780 ft | 276 kts | 198° |
| 2026-04-20 21:17 | 41.41793 | -74.38769 | 6779 ft | 276 kts | 198° |
| 2026-04-20 21:18 | 41.39920 | -74.39571 | 6779 ft | 276 kts | 198° |
| 2026-04-20 21:18 | 41.38076 | -74.40363 | 6779 ft | 276 kts | 198° |
| 2026-04-20 21:18 | 41.36228 | -74.41157 | 6779 ft | 276 kts | 198° |
| 2026-04-20 21:18 | 41.35621 | -74.41419 | 6779 ft | 276 kts | 198° |
| 2026-04-20 21:19 | 41.32560 | -74.42734 | 6779 ft | 276 kts | 198° |
| 2026-04-20 21:19 | 41.30727 | -74.43521 | 6779 ft | 276 kts | 198° |
| 2026-04-20 21:19 | 41.28869 | -74.44318 | 6776 ft | 276 kts | 198° |
| 2026-04-20 21:20 | 41.25192 | -74.45889 | 6605 ft | 275 kts | 198° |
| 2026-04-20 21:20 | 41.23344 | -74.46680 | 6509 ft | 275 kts | 198° |
| 2026-04-20 21:20 | 41.21501 | -74.47469 | 6408 ft | 274 kts | 198° |
| 2026-04-20 21:20 | 41.19660 | -74.48257 | 6307 ft | 274 kts | 198° |
| 2026-04-20 21:21 | 41.17827 | -74.49042 | 6206 ft | 273 kts | 198° |
| 2026-04-20 21:21 | 41.15966 | -74.49837 | 6104 ft | 273 kts | 198° |
| 2026-04-20 21:21 | 41.14114 | -74.50629 | 6001 ft | 273 kts | 198° |
| 2026-04-20 21:21 | 41.12281 | -74.51411 | 5900 ft | 272 kts | 198° |
| 2026-04-20 21:22 | 41.10433 | -74.52200 | 5798 ft | 272 kts | 198° |
| 2026-04-20 21:22 | 41.08599 | -74.52926 | 5696 ft | 271 kts | 195° |
| 2026-04-20 21:22 | 41.06708 | -74.53499 | 5593 ft | 271 kts | 191° |
| 2026-04-20 21:22 | 41.04810 | -74.53896 | 5491 ft | 271 kts | 187° |
| 2026-04-20 21:23 | 41.02902 | -74.54122 | 5389 ft | 270 kts | 184° |
| 2026-04-20 21:23 | 41.00998 | -74.54295 | 5288 ft | 270 kts | 184° |
| 2026-04-20 21:23 | 40.99092 | -74.54469 | 5186 ft | 269 kts | 184° |
| 2026-04-20 21:23 | 40.97185 | -74.54644 | 5088 ft | 269 kts | 184° |
| 2026-04-20 21:24 | 40.95273 | -74.54821 | 4985 ft | 269 kts | 184° |
| 2026-04-20 21:24 | 40.93365 | -74.54999 | 4883 ft | 268 kts | 184° |
| 2026-04-20 21:24 | 40.91473 | -74.55177 | 4782 ft | 268 kts | 184° |
| 2026-04-20 21:24 | 40.89533 | -74.55357 | 4678 ft | 267 kts | 184° |
| 2026-04-20 21:25 | 40.87530 | -74.55540 | 4570 ft | 267 kts | 184° |
| 2026-04-20 21:25 | 40.85638 | -74.55713 | 4468 ft | 267 kts | 184° |
| 2026-04-20 21:25 | 40.83735 | -74.55877 | 4365 ft | 266 kts | 182° |
| 2026-04-20 21:25 | 40.81838 | -74.55887 | 4261 ft | 266 kts | 178° |
| 2026-04-20 21:26 | 40.80151 | -74.55806 | 4170 ft | 265 kts | 178° |
| 2026-04-20 21:26 | 40.78282 | -74.55714 | 4069 ft | 265 kts | 178° |
| 2026-04-20 21:26 | 40.76413 | -74.55622 | 3968 ft | 265 kts | 178° |
| 2026-04-20 21:26 | 40.74526 | -74.55530 | 3866 ft | 264 kts | 178° |
| 2026-04-20 21:27 | 40.72658 | -74.55438 | 3764 ft | 264 kts | 178° |
| 2026-04-20 21:27 | 40.70774 | -74.55346 | 3662 ft | 264 kts | 178° |
| 2026-04-20 21:27 | 40.68923 | -74.55256 | 3561 ft | 263 kts | 178° |
| 2026-04-20 21:27 | 40.67034 | -74.55164 | 3458 ft | 263 kts | 178° |
| 2026-04-20 21:28 | 40.65185 | -74.55074 | 3357 ft | 262 kts | 178° |
| 2026-04-20 21:28 | 40.63325 | -74.54984 | 3258 ft | 262 kts | 178° |
| 2026-04-20 21:28 | 40.61472 | -74.54894 | 3177 ft | 253 kts | 178° |
| 2026-04-20 21:28 | 40.59726 | -74.54810 | 3092 ft | 239 kts | 178° |
| 2026-04-20 21:29 | 40.58098 | -74.54730 | 3009 ft | 223 kts | 178° |
| 2026-04-20 21:29 | 40.56553 | -74.54655 | 2925 ft | 212 kts | 178° |
| 2026-04-20 21:29 | 40.55075 | -74.54579 | 2848 ft | 209 kts | 175° |
| 2026-04-20 21:29 | 40.53721 | -74.53930 | 2753 ft | 205 kts | 137° |
| 2026-04-20 21:30 | 40.53097 | -74.52340 | 2650 ft | 186 kts | 99° |
| 2026-04-20 21:30 | 40.53003 | -74.50600 | 2588 ft | 185 kts | 92° |
| 2026-04-20 21:30 | 40.52965 | -74.48875 | 2577 ft | 185 kts | 92° |
| 2026-04-20 21:30 | 40.52912 | -74.47173 | 2578 ft | 185 kts | 93° |
| 2026-04-20 21:31 | 40.52834 | -74.45440 | 2578 ft | 185 kts | 94° |
| 2026-04-20 21:31 | 40.52737 | -74.43703 | 2578 ft | 185 kts | 94° |
| 2026-04-20 21:31 | 40.52632 | -74.41977 | 2575 ft | 185 kts | 95° |
| 2026-04-20 21:31 | 40.52521 | -74.40260 | 2577 ft | 185 kts | 95° |
| 2026-04-20 21:32 | 40.52406 | -74.38532 | 2578 ft | 185 kts | 95° |
| 2026-04-20 21:32 | 40.52290 | -74.36807 | 2578 ft | 185 kts | 95° |
| 2026-04-20 21:32 | 40.52175 | -74.35107 | 2568 ft | 176 kts | 95° |
| 2026-04-20 21:32 | 40.52066 | -74.33493 | 2572 ft | 172 kts | 95° |
| 2026-04-20 21:33 | 40.51957 | -74.31895 | 2577 ft | 172 kts | 95° |
| 2026-04-20 21:33 | 40.51847 | -74.30287 | 2578 ft | 172 kts | 95° |
| 2026-04-20 21:33 | 40.51743 | -74.28678 | 2578 ft | 172 kts | 90° |
| 2026-04-20 21:33 | 40.52136 | -74.27197 | 2569 ft | 172 kts | 47° |
| 2026-04-20 21:34 | 40.53144 | -74.26348 | 2589 ft | 172 kts | 24° |
| 2026-04-20 21:34 | 40.54283 | -74.25775 | 2582 ft | 172 kts | 20° |
| 2026-04-20 21:34 | 40.55419 | -74.25209 | 2578 ft | 172 kts | 22° |
| 2026-04-20 21:34 | 40.56553 | -74.24560 | 2472 ft | 173 kts | 25° |
| 2026-04-20 21:35 | 40.57646 | -74.23880 | 2245 ft | 167 kts | 26° |
| 2026-04-20 21:35 | 40.58691 | -74.23211 | 2029 ft | 164 kts | 26° |
| 2026-04-20 21:35 | 40.59722 | -74.22549 | 1805 ft | 154 kts | 26° |
| 2026-04-20 21:35 | 40.60648 | -74.21957 | 1611 ft | 150 kts | 26° |
| 2026-04-20 21:36 | 40.61616 | -74.21341 | 1420 ft | 150 kts | 26° |
| 2026-04-20 21:36 | 40.62566 | -74.20735 | 1226 ft | 149 kts | 26° |
| 2026-04-20 21:36 | 40.63529 | -74.20122 | 1030 ft | 149 kts | 26° |
| 2026-04-20 21:36 | 40.64475 | -74.19519 | 833 ft | 149 kts | 26° |
| 2026-04-20 21:37 | 40.65423 | -74.18915 | 632 ft | 148 kts | 26° |
| 2026-04-20 21:37 | 40.66369 | -74.18313 | 431 ft | 148 kts | 26° |
| 2026-04-20 21:37 | 40.67316 | -74.17710 | 236 ft | 147 kts | 26° |
| 2026-04-20 21:37 | 40.68248 | -74.17100 | 31 ft | 144 kts | 26° |
| 2026-04-20 21:38 | 40.69043 | -74.16605 | 25 ft | 90 kts | 26° |
| 2026-04-20 21:38 | 40.69441 | -74.16349 | 25 ft | 49 kts | 26° |
| 2026-04-20 21:38 | 40.69657 | -74.16299 | 25 ft | 19 kts | 359° |
| 2026-04-20 21:38 | 40.69690 | -74.16299 | 25 ft | 0 kts | 359° |
| 2026-04-20 21:40 | 40.69698 | -74.16299 | 25 ft | 0 kts | 359° |
| 2026-04-20 21:41 | 40.69721 | -74.16302 | 25 ft | 10 kts | 351° |
| 2026-04-20 21:41 | 40.69773 | -74.16355 | 24 ft | 7 kts | 255° |
| 2026-04-20 21:41 | 40.69691 | -74.16423 | 25 ft | 21 kts | 205° |
| 2026-04-20 21:41 | 40.69600 | -74.16478 | 25 ft | 10 kts | 204° |
| 2026-04-20 21:42 | 40.69481 | -74.16550 | 25 ft | 22 kts | 205° |
| 2026-04-20 21:42 | 40.69320 | -74.16653 | 25 ft | 25 kts | 206° |
| 2026-04-20 21:42 | 40.69152 | -74.16760 | 25 ft | 26 kts | 206° |
| 2026-04-20 21:42 | 40.69044 | -74.16831 | 25 ft | 10 kts | 222° |
| 2026-04-20 21:43 | 40.69044 | -74.16939 | 25 ft | 18 kts | 290° |
| 2026-04-20 21:43 | 40.69091 | -74.17090 | 25 ft | 11 kts | 268° |
| 2026-04-20 21:43 | 40.69044 | -74.17149 | 25 ft | 15 kts | 210° |
| 2026-04-20 21:43 | 40.68998 | -74.17226 | 25 ft | 8 kts | 299° |
| 2026-04-20 21:44 | 40.69035 | -74.17318 | 25 ft | 10 kts | 297° |
| 2026-04-20 21:44 | 40.69087 | -74.17348 | 25 ft | 5 kts | 359° |
| 2026-04-20 21:44 | 40.69116 | -74.17350 | 25 ft | 0 kts | 350° |
| 2026-04-20 21:44 | 40.69120 | -74.17351 | 25 ft | 2 kts | 343° |
| 2026-04-20 21:45 | 40.69135 | -74.17364 | 25 ft | 0 kts | 326° |